sensor_id;sensor_type;location;lat;lon;timestamp;P1;durP1;ratioP1;P2;durP2;ratioP2
64641;SDS011;59936;51.490;5.436;2023-05-10T00:02:01;23.85;;;12.55;;
64641;SDS011;59936;51.490;5.436;2023-05-10T00:06:53;24.50;;;12.95;;
64641;SDS011;59936;51.490;5.436;2023-05-10T00:09:19;28.10;;;13.70;;
64641;SDS011;59936;51.490;5.436;2023-05-10T00:14:11;31.05;;;15.35;;
64641;SDS011;59936;51.490;5.436;2023-05-10T00:16:37;28.20;;;15.70;;
64641;SDS011;59936;51.490;5.436;2023-05-10T00:21:28;39.05;;;14.25;;
64641;SDS011;59936;51.490;5.436;2023-05-10T00:26:20;30.95;;;15.40;;
64641;SDS011;59936;51.490;5.436;2023-05-10T00:31:11;33.35;;;17.05;;
64641;SDS011;59936;51.490;5.436;2023-05-10T00:36:03;38.55;;;17.35;;
64641;SDS011;59936;51.490;5.436;2023-05-10T00:38:29;46.20;;;20.60;;
64641;SDS011;59936;51.490;5.436;2023-05-10T00:43:20;49.60;;;21.30;;
64641;SDS011;59936;51.490;5.436;2023-05-10T00:48:12;52.60;;;22.80;;
64641;SDS011;59936;51.490;5.436;2023-05-10T00:50:38;62.10;;;24.40;;
64641;SDS011;59936;51.490;5.436;2023-05-10T00:53:04;62.80;;;25.00;;
64641;SDS011;59936;51.490;5.436;2023-05-10T00:57:56;60.90;;;24.90;;
64641;SDS011;59936;51.490;5.436;2023-05-10T01:02:47;75.35;;;28.00;;
64641;SDS011;59936;51.490;5.436;2023-05-10T01:07:39;78.20;;;28.05;;
64641;SDS011;59936;51.490;5.436;2023-05-10T01:12:32;70.90;;;26.80;;
64641;SDS011;59936;51.490;5.436;2023-05-10T01:15:02;80.40;;;29.50;;
64641;SDS011;59936;51.490;5.436;2023-05-10T01:17:29;81.70;;;27.90;;
64641;SDS011;59936;51.490;5.436;2023-05-10T01:19:56;83.70;;;30.10;;
64641;SDS011;59936;51.490;5.436;2023-05-10T01:33:17;120.40;;;35.40;;
64641;SDS011;59936;51.490;5.436;2023-05-10T01:36:05;132.00;;;39.20;;
64641;SDS011;59936;51.490;5.436;2023-05-10T01:43:33;109.50;;;33.30;;
64641;SDS011;59936;51.490;5.436;2023-05-10T01:46:09;124.90;;;36.20;;
64641;SDS011;59936;51.490;5.436;2023-05-10T01:48:40;119.70;;;36.50;;
64641;SDS011;59936;51.490;5.436;2023-05-10T01:51:12;127.70;;;35.90;;
64641;SDS011;59936;51.490;5.436;2023-05-10T01:53:44;123.50;;;37.70;;
64641;SDS011;59936;51.490;5.436;2023-05-10T01:56:13;103.40;;;32.40;;
64641;SDS011;59936;51.490;5.436;2023-05-10T01:58:40;122.90;;;37.90;;
64641;SDS011;59936;51.490;5.436;2023-05-10T02:01:10;117.40;;;36.50;;
64641;SDS011;59936;51.490;5.436;2023-05-10T02:03:37;99.00;;;31.90;;
64641;SDS011;59936;51.490;5.436;2023-05-10T02:06:05;115.70;;;36.60;;
64641;SDS011;59936;51.490;5.436;2023-05-10T02:08:32;113.50;;;37.70;;
64641;SDS011;59936;51.490;5.436;2023-05-10T02:11:01;107.60;;;35.60;;
64641;SDS011;59936;51.490;5.436;2023-05-10T02:13:28;114.70;;;36.80;;
64641;SDS011;59936;51.490;5.436;2023-05-10T02:15:56;119.70;;;37.00;;
64641;SDS011;59936;51.490;5.436;2023-05-10T02:18:23;108.30;;;36.30;;
64641;SDS011;59936;51.490;5.436;2023-05-10T02:20:51;107.00;;;38.20;;
64641;SDS011;59936;51.490;5.436;2023-05-10T02:23:19;104.30;;;38.20;;
64641;SDS011;59936;51.490;5.436;2023-05-10T02:25:46;95.10;;;36.90;;
64641;SDS011;59936;51.490;5.436;2023-05-10T02:28:13;107.20;;;37.70;;
64641;SDS011;59936;51.490;5.436;2023-05-10T02:30:39;85.90;;;38.40;;
64641;SDS011;59936;51.490;5.436;2023-05-10T02:33:06;84.30;;;36.50;;
64641;SDS011;59936;51.490;5.436;2023-05-10T02:35:33;74.80;;;34.50;;
64641;SDS011;59936;51.490;5.436;2023-05-10T02:38:00;100.20;;;39.70;;
64641;SDS011;59936;51.490;5.436;2023-05-10T02:40:26;97.10;;;40.90;;
64641;SDS011;59936;51.490;5.436;2023-05-10T02:42:54;74.70;;;35.80;;
64641;SDS011;59936;51.490;5.436;2023-05-10T02:45:23;83.20;;;38.40;;
64641;SDS011;59936;51.490;5.436;2023-05-10T02:47:51;86.20;;;39.20;;
64641;SDS011;59936;51.490;5.436;2023-05-10T02:50:18;72.90;;;36.20;;
64641;SDS011;59936;51.490;5.436;2023-05-10T02:52:50;99.00;;;42.90;;
64641;SDS011;59936;51.490;5.436;2023-05-10T02:55:17;86.80;;;38.20;;
64641;SDS011;59936;51.490;5.436;2023-05-10T02:57:51;112.30;;;44.60;;
64641;SDS011;59936;51.490;5.436;2023-05-10T03:00:22;103.40;;;45.10;;
64641;SDS011;59936;51.490;5.436;2023-05-10T03:02:48;99.70;;;44.30;;
64641;SDS011;59936;51.490;5.436;2023-05-10T03:05:13;103.90;;;41.50;;
64641;SDS011;59936;51.490;5.436;2023-05-10T03:07:39;109.00;;;42.70;;
64641;SDS011;59936;51.490;5.436;2023-05-10T03:10:05;102.60;;;41.20;;
64641;SDS011;59936;51.490;5.436;2023-05-10T03:12:41;106.10;;;42.50;;
64641;SDS011;59936;51.490;5.436;2023-05-10T03:15:19;103.90;;;42.00;;
64641;SDS011;59936;51.490;5.436;2023-05-10T03:20:46;98.00;;;36.80;;
64641;SDS011;59936;51.490;5.436;2023-05-10T03:23:19;87.10;;;37.30;;
64641;SDS011;59936;51.490;5.436;2023-05-10T03:25:48;88.70;;;36.10;;
64641;SDS011;59936;51.490;5.436;2023-05-10T03:28:15;93.30;;;35.50;;
64641;SDS011;59936;51.490;5.436;2023-05-10T03:30:42;69.70;;;32.00;;
64641;SDS011;59936;51.490;5.436;2023-05-10T03:33:09;79.80;;;33.00;;
64641;SDS011;59936;51.490;5.436;2023-05-10T03:38:01;69.95;;;28.60;;
64641;SDS011;59936;51.490;5.436;2023-05-10T03:40:27;75.70;;;30.90;;
64641;SDS011;59936;51.490;5.436;2023-05-10T03:42:54;74.00;;;30.40;;
64641;SDS011;59936;51.490;5.436;2023-05-10T03:45:20;74.10;;;31.60;;
64641;SDS011;59936;51.490;5.436;2023-05-10T03:50:12;73.90;;;30.80;;
64641;SDS011;59936;51.490;5.436;2023-05-10T03:55:03;77.60;;;31.50;;
64641;SDS011;59936;51.490;5.436;2023-05-10T03:57:30;87.90;;;32.80;;
64641;SDS011;59936;51.490;5.436;2023-05-10T04:02:21;80.25;;;32.90;;
64641;SDS011;59936;51.490;5.436;2023-05-10T04:07:13;80.90;;;31.05;;
64641;SDS011;59936;51.490;5.436;2023-05-10T04:09:39;71.90;;;31.90;;
64641;SDS011;59936;51.490;5.436;2023-05-10T04:14:31;79.10;;;33.10;;
64641;SDS011;59936;51.490;5.436;2023-05-10T04:19:22;87.70;;;36.05;;
64641;SDS011;59936;51.490;5.436;2023-05-10T04:24:14;74.75;;;32.70;;
64641;SDS011;59936;51.490;5.436;2023-05-10T04:29:05;79.80;;;36.00;;
64641;SDS011;59936;51.490;5.436;2023-05-10T04:31:31;82.80;;;36.90;;
64641;SDS011;59936;51.490;5.436;2023-05-10T04:33:57;88.80;;;37.90;;
64641;SDS011;59936;51.490;5.436;2023-05-10T04:38:49;70.50;;;30.40;;
64641;SDS011;59936;51.490;5.436;2023-05-10T04:43:40;57.75;;;30.70;;
64641;SDS011;59936;51.490;5.436;2023-05-10T04:48:31;47.30;;;23.20;;
64641;SDS011;59936;51.490;5.436;2023-05-10T04:50:58;44.30;;;24.20;;
64641;SDS011;59936;51.490;5.436;2023-05-10T04:55:49;33.80;;;18.30;;
64641;SDS011;59936;51.490;5.436;2023-05-10T05:00:41;43.80;;;24.20;;
64641;SDS011;59936;51.490;5.436;2023-05-10T05:03:07;46.60;;;26.10;;
64641;SDS011;59936;51.490;5.436;2023-05-10T05:07:58;50.40;;;27.75;;
64641;SDS011;59936;51.490;5.436;2023-05-10T05:12:50;50.10;;;26.40;;
64641;SDS011;59936;51.490;5.436;2023-05-10T05:17:42;53.10;;;26.70;;
64641;SDS011;59936;51.490;5.436;2023-05-10T05:20:08;55.80;;;29.10;;
64641;SDS011;59936;51.490;5.436;2023-05-10T05:22:35;46.90;;;26.20;;
64641;SDS011;59936;51.490;5.436;2023-05-10T05:25:01;51.90;;;28.30;;
64641;SDS011;59936;51.490;5.436;2023-05-10T05:29:53;43.00;;;23.40;;
64641;SDS011;59936;51.490;5.436;2023-05-10T05:32:20;45.90;;;22.90;;
64641;SDS011;59936;51.490;5.436;2023-05-10T05:34:46;48.10;;;24.70;;
64641;SDS011;59936;51.490;5.436;2023-05-10T05:37:16;42.10;;;24.60;;
64641;SDS011;59936;51.490;5.436;2023-05-10T05:39:42;50.20;;;26.00;;
64641;SDS011;59936;51.490;5.436;2023-05-10T05:44:34;46.00;;;25.10;;
64641;SDS011;59936;51.490;5.436;2023-05-10T05:49:26;42.30;;;23.30;;
64641;SDS011;59936;51.490;5.436;2023-05-10T05:51:52;41.50;;;25.20;;
64641;SDS011;59936;51.490;5.436;2023-05-10T05:56:43;44.45;;;24.70;;
64641;SDS011;59936;51.490;5.436;2023-05-10T06:01:35;45.20;;;22.60;;
64641;SDS011;59936;51.490;5.436;2023-05-10T06:06:27;34.90;;;21.70;;
64641;SDS011;59936;51.490;5.436;2023-05-10T06:11:19;36.10;;;21.60;;
64641;SDS011;59936;51.490;5.436;2023-05-10T06:13:44;40.50;;;22.50;;
64641;SDS011;59936;51.490;5.436;2023-05-10T06:18:36;39.80;;;23.60;;
64641;SDS011;59936;51.490;5.436;2023-05-10T06:21:02;36.80;;;22.00;;
64641;SDS011;59936;51.490;5.436;2023-05-10T06:23:28;33.60;;;20.80;;
64641;SDS011;59936;51.490;5.436;2023-05-10T06:25:53;45.10;;;25.20;;
64641;SDS011;59936;51.490;5.436;2023-05-10T06:28:19;39.40;;;22.30;;
64641;SDS011;59936;51.490;5.436;2023-05-10T06:30:45;49.90;;;26.40;;
64641;SDS011;59936;51.490;5.436;2023-05-10T06:33:11;39.50;;;25.60;;
64641;SDS011;59936;51.490;5.436;2023-05-10T06:35:37;45.70;;;26.80;;
64641;SDS011;59936;51.490;5.436;2023-05-10T06:38:03;38.50;;;22.60;;
64641;SDS011;59936;51.490;5.436;2023-05-10T06:40:29;41.90;;;27.30;;
64641;SDS011;59936;51.490;5.436;2023-05-10T06:42:54;32.90;;;22.20;;
64641;SDS011;59936;51.490;5.436;2023-05-10T06:45:20;47.60;;;27.60;;
64641;SDS011;59936;51.490;5.436;2023-05-10T06:47:46;38.30;;;24.50;;
64641;SDS011;59936;51.490;5.436;2023-05-10T06:50:12;46.40;;;23.90;;
64641;SDS011;59936;51.490;5.436;2023-05-10T06:55:04;39.00;;;24.30;;
64641;SDS011;59936;51.490;5.436;2023-05-10T06:57:30;55.60;;;28.90;;
64641;SDS011;59936;51.490;5.436;2023-05-10T06:59:56;48.30;;;28.00;;
64641;SDS011;59936;51.490;5.436;2023-05-10T07:02:22;46.00;;;27.30;;
64641;SDS011;59936;51.490;5.436;2023-05-10T07:07:14;40.40;;;25.60;;
64641;SDS011;59936;51.490;5.436;2023-05-10T07:09:40;43.20;;;23.90;;
64641;SDS011;59936;51.490;5.436;2023-05-10T07:12:06;44.60;;;25.60;;
64641;SDS011;59936;51.490;5.436;2023-05-10T07:14:32;40.10;;;24.30;;
64641;SDS011;59936;51.490;5.436;2023-05-10T07:19:23;36.30;;;22.65;;
64641;SDS011;59936;51.490;5.436;2023-05-10T07:21:49;41.00;;;23.00;;
64641;SDS011;59936;51.490;5.436;2023-05-10T07:24:15;22.50;;;14.50;;
64641;SDS011;59936;51.490;5.436;2023-05-10T07:29:07;26.80;;;17.00;;
64641;SDS011;59936;51.490;5.436;2023-05-10T07:33:58;27.20;;;17.90;;
64641;SDS011;59936;51.490;5.436;2023-05-10T07:36:24;25.10;;;17.20;;
64641;SDS011;59936;51.490;5.436;2023-05-10T07:38:50;25.10;;;17.00;;
64641;SDS011;59936;51.490;5.436;2023-05-10T07:43:41;19.10;;;13.60;;
64641;SDS011;59936;51.490;5.436;2023-05-10T07:46:07;17.70;;;13.10;;
64641;SDS011;59936;51.490;5.436;2023-05-10T07:48:33;26.90;;;16.50;;
64641;SDS011;59936;51.490;5.436;2023-05-10T07:50:59;24.80;;;15.00;;
64641;SDS011;59936;51.490;5.436;2023-05-10T07:53:26;22.10;;;14.40;;
64641;SDS011;59936;51.490;5.436;2023-05-10T07:55:53;20.30;;;13.20;;
64641;SDS011;59936;51.490;5.436;2023-05-10T07:58:22;21.40;;;13.90;;
64641;SDS011;59936;51.490;5.436;2023-05-10T08:03:13;19.35;;;12.55;;
64641;SDS011;59936;51.490;5.436;2023-05-10T08:05:39;14.40;;;11.30;;
64641;SDS011;59936;51.490;5.436;2023-05-10T08:08:05;19.20;;;11.10;;
64641;SDS011;59936;51.490;5.436;2023-05-10T08:10:31;19.40;;;11.20;;
64641;SDS011;59936;51.490;5.436;2023-05-10T08:12:57;18.80;;;11.40;;
64641;SDS011;59936;51.490;5.436;2023-05-10T08:17:49;13.90;;;9.60;;
64641;SDS011;59936;51.490;5.436;2023-05-10T08:22:41;14.60;;;9.85;;
64641;SDS011;59936;51.490;5.436;2023-05-10T08:25:07;14.10;;;11.10;;
64641;SDS011;59936;51.490;5.436;2023-05-10T08:27:33;14.60;;;10.20;;
64641;SDS011;59936;51.490;5.436;2023-05-10T08:32:24;15.20;;;9.80;;
64641;SDS011;59936;51.490;5.436;2023-05-10T08:34:50;16.90;;;9.80;;
64641;SDS011;59936;51.490;5.436;2023-05-10T08:37:16;10.80;;;9.00;;
64641;SDS011;59936;51.490;5.436;2023-05-10T08:39:42;16.20;;;10.30;;
64641;SDS011;59936;51.490;5.436;2023-05-10T08:42:08;12.10;;;9.10;;
64641;SDS011;59936;51.490;5.436;2023-05-10T08:44:35;15.10;;;10.60;;
64641;SDS011;59936;51.490;5.436;2023-05-10T08:47:05;12.60;;;8.90;;
64641;SDS011;59936;51.490;5.436;2023-05-10T08:49:31;12.50;;;9.90;;
64641;SDS011;59936;51.490;5.436;2023-05-10T08:51:58;18.40;;;10.30;;
64641;SDS011;59936;51.490;5.436;2023-05-10T08:54:27;13.40;;;11.30;;
64641;SDS011;59936;51.490;5.436;2023-05-10T08:56:53;20.00;;;11.50;;
64641;SDS011;59936;51.490;5.436;2023-05-10T08:59:19;12.40;;;9.90;;
64641;SDS011;59936;51.490;5.436;2023-05-10T09:01:45;13.60;;;9.60;;
64641;SDS011;59936;51.490;5.436;2023-05-10T09:04:12;13.90;;;9.30;;
64641;SDS011;59936;51.490;5.436;2023-05-10T09:06:38;8.20;;;7.30;;
64641;SDS011;59936;51.490;5.436;2023-05-10T09:09:04;9.00;;;7.10;;
64641;SDS011;59936;51.490;5.436;2023-05-10T09:11:30;9.40;;;7.10;;
64641;SDS011;59936;51.490;5.436;2023-05-10T09:13:56;8.90;;;7.80;;
64641;SDS011;59936;51.490;5.436;2023-05-10T09:16:23;10.20;;;8.40;;
64641;SDS011;59936;51.490;5.436;2023-05-10T09:18:49;13.00;;;7.70;;
64641;SDS011;59936;51.490;5.436;2023-05-10T09:21:15;9.60;;;8.60;;
64641;SDS011;59936;51.490;5.436;2023-05-10T09:23:44;12.20;;;7.90;;
64641;SDS011;59936;51.490;5.436;2023-05-10T09:26:11;9.90;;;6.90;;
64641;SDS011;59936;51.490;5.436;2023-05-10T09:28:56;8.70;;;7.00;;
64641;SDS011;59936;51.490;5.436;2023-05-10T09:31:23;8.20;;;7.40;;
64641;SDS011;59936;51.490;5.436;2023-05-10T09:33:49;8.40;;;7.60;;
64641;SDS011;59936;51.490;5.436;2023-05-10T09:36:15;8.00;;;7.30;;
64641;SDS011;59936;51.490;5.436;2023-05-10T09:38:51;10.70;;;7.20;;
64641;SDS011;59936;51.490;5.436;2023-05-10T09:41:18;9.20;;;7.10;;
64641;SDS011;59936;51.490;5.436;2023-05-10T09:43:45;7.30;;;6.60;;
64641;SDS011;59936;51.490;5.436;2023-05-10T09:46:11;7.00;;;6.30;;
64641;SDS011;59936;51.490;5.436;2023-05-10T09:48:44;8.60;;;6.40;;
64641;SDS011;59936;51.490;5.436;2023-05-10T09:51:21;10.90;;;7.80;;
64641;SDS011;59936;51.490;5.436;2023-05-10T09:53:47;9.40;;;7.40;;
64641;SDS011;59936;51.490;5.436;2023-05-10T09:56:15;8.90;;;7.60;;
64641;SDS011;59936;51.490;5.436;2023-05-10T09:59:04;8.90;;;6.90;;
64641;SDS011;59936;51.490;5.436;2023-05-10T10:01:31;9.50;;;7.70;;
64641;SDS011;59936;51.490;5.436;2023-05-10T10:03:57;10.80;;;9.80;;
64641;SDS011;59936;51.490;5.436;2023-05-10T10:06:23;12.10;;;9.80;;
64641;SDS011;59936;51.490;5.436;2023-05-10T10:08:50;12.30;;;10.90;;
64641;SDS011;59936;51.490;5.436;2023-05-10T10:11:16;15.70;;;11.80;;
64641;SDS011;59936;51.490;5.436;2023-05-10T10:13:42;12.70;;;11.00;;
64641;SDS011;59936;51.490;5.436;2023-05-10T10:18:14;11.60;;;10.40;;
64641;SDS011;59936;51.490;5.436;2023-05-10T10:20:40;10.50;;;9.50;;
64641;SDS011;59936;51.490;5.436;2023-05-10T10:23:07;12.20;;;9.50;;
64641;SDS011;59936;51.490;5.436;2023-05-10T10:25:33;6.70;;;6.00;;
64641;SDS011;59936;51.490;5.436;2023-05-10T10:28:05;10.10;;;7.20;;
64641;SDS011;59936;51.490;5.436;2023-05-10T10:30:42;6.50;;;5.80;;
64641;SDS011;59936;51.490;5.436;2023-05-10T10:35:54;9.00;;;6.10;;
64641;SDS011;59936;51.490;5.436;2023-05-10T10:38:23;10.30;;;6.90;;
64641;SDS011;59936;51.490;5.436;2023-05-10T10:40:48;7.30;;;6.60;;
64641;SDS011;59936;51.490;5.436;2023-05-10T10:43:29;7.60;;;5.10;;
64641;SDS011;59936;51.490;5.436;2023-05-10T10:46:14;12.00;;;6.40;;
64641;SDS011;59936;51.490;5.436;2023-05-10T10:48:41;7.70;;;5.80;;
64641;SDS011;59936;51.490;5.436;2023-05-10T10:51:13;7.60;;;6.30;;
64641;SDS011;59936;51.490;5.436;2023-05-10T10:53:39;9.20;;;6.60;;
64641;SDS011;59936;51.490;5.436;2023-05-10T10:56:07;10.10;;;7.00;;
64641;SDS011;59936;51.490;5.436;2023-05-10T10:58:34;9.40;;;8.60;;
64641;SDS011;59936;51.490;5.436;2023-05-10T11:01:12;10.40;;;7.90;;
64641;SDS011;59936;51.490;5.436;2023-05-10T11:03:54;7.70;;;6.40;;
64641;SDS011;59936;51.490;5.436;2023-05-10T11:06:32;12.00;;;10.40;;
64641;SDS011;59936;51.490;5.436;2023-05-10T11:08:59;15.90;;;13.50;;
64641;SDS011;59936;51.490;5.436;2023-05-10T11:11:31;20.60;;;14.70;;
64641;SDS011;59936;51.490;5.436;2023-05-10T11:14:02;20.30;;;16.40;;
64641;SDS011;59936;51.490;5.436;2023-05-10T11:16:29;17.30;;;15.50;;
64641;SDS011;59936;51.490;5.436;2023-05-10T11:19:07;15.50;;;13.90;;
64641;SDS011;59936;51.490;5.436;2023-05-10T11:21:44;15.50;;;13.90;;
64641;SDS011;59936;51.490;5.436;2023-05-10T11:24:30;14.00;;;12.00;;
64641;SDS011;59936;51.490;5.436;2023-05-10T11:26:56;17.70;;;12.30;;
64641;SDS011;59936;51.490;5.436;2023-05-10T11:29:22;13.50;;;11.40;;
64641;SDS011;59936;51.490;5.436;2023-05-10T11:31:48;16.80;;;13.50;;
64641;SDS011;59936;51.490;5.436;2023-05-10T11:34:25;19.60;;;13.60;;
64641;SDS011;59936;51.490;5.436;2023-05-10T11:39:17;17.10;;;13.50;;
64641;SDS011;59936;51.490;5.436;2023-05-10T11:41:43;15.00;;;13.40;;
64641;SDS011;59936;51.490;5.436;2023-05-10T11:44:13;15.40;;;13.80;;
64641;SDS011;59936;51.490;5.436;2023-05-10T11:46:39;13.90;;;12.40;;
64641;SDS011;59936;51.490;5.436;2023-05-10T11:49:06;18.20;;;13.40;;
64641;SDS011;59936;51.490;5.436;2023-05-10T11:51:33;17.60;;;12.50;;
64641;SDS011;59936;51.490;5.436;2023-05-10T11:54:00;16.80;;;13.20;;
64641;SDS011;59936;51.490;5.436;2023-05-10T11:56:26;12.10;;;6.80;;
64641;SDS011;59936;51.490;5.436;2023-05-10T11:58:53;11.60;;;10.00;;
64641;SDS011;59936;51.490;5.436;2023-05-10T12:01:20;14.10;;;9.90;;
64641;SDS011;59936;51.490;5.436;2023-05-10T12:03:47;15.90;;;11.20;;
64641;SDS011;59936;51.490;5.436;2023-05-10T12:06:13;11.30;;;9.50;;
64641;SDS011;59936;51.490;5.436;2023-05-10T12:08:43;12.10;;;8.40;;
64641;SDS011;59936;51.490;5.436;2023-05-10T12:11:11;13.50;;;10.50;;
64641;SDS011;59936;51.490;5.436;2023-05-10T12:13:38;14.00;;;12.00;;
64641;SDS011;59936;51.490;5.436;2023-05-10T12:16:21;13.10;;;11.70;;
64641;SDS011;59936;51.490;5.436;2023-05-10T12:18:49;14.40;;;12.00;;
64641;SDS011;59936;51.490;5.436;2023-05-10T12:21:16;16.30;;;13.90;;
64641;SDS011;59936;51.490;5.436;2023-05-10T12:23:45;16.60;;;13.10;;
64641;SDS011;59936;51.490;5.436;2023-05-10T12:26:12;12.50;;;9.90;;
64641;SDS011;59936;51.490;5.436;2023-05-10T12:31:04;15.00;;;10.60;;
64641;SDS011;59936;51.490;5.436;2023-05-10T12:33:41;10.80;;;9.80;;
64641;SDS011;59936;51.490;5.436;2023-05-10T12:36:09;9.50;;;8.50;;
64641;SDS011;59936;51.490;5.436;2023-05-10T12:38:37;10.00;;;8.70;;
64641;SDS011;59936;51.490;5.436;2023-05-10T12:41:05;11.70;;;9.80;;
64641;SDS011;59936;51.490;5.436;2023-05-10T12:43:32;9.00;;;6.90;;
64641;SDS011;59936;51.490;5.436;2023-05-10T12:48:32;9.30;;;8.40;;
64641;SDS011;59936;51.490;5.436;2023-05-10T12:50:58;9.20;;;8.30;;
64641;SDS011;59936;51.490;5.436;2023-05-10T12:55:49;9.90;;;8.90;;
64641;SDS011;59936;51.490;5.436;2023-05-10T12:58:15;11.70;;;8.70;;
64641;SDS011;59936;51.490;5.436;2023-05-10T13:00:41;12.70;;;11.30;;
64641;SDS011;59936;51.490;5.436;2023-05-10T13:03:07;13.50;;;12.20;;
64641;SDS011;59936;51.490;5.436;2023-05-10T13:05:33;16.20;;;13.70;;
64641;SDS011;59936;51.490;5.436;2023-05-10T13:07:58;21.00;;;15.80;;
64641;SDS011;59936;51.490;5.436;2023-05-10T13:12:50;18.45;;;14.15;;
64641;SDS011;59936;51.490;5.436;2023-05-10T13:15:16;17.50;;;15.70;;
64641;SDS011;59936;51.490;5.436;2023-05-10T13:20:08;20.50;;;16.50;;
64641;SDS011;59936;51.490;5.436;2023-05-10T13:22:35;23.00;;;18.10;;
64641;SDS011;59936;51.490;5.436;2023-05-10T13:25:01;18.20;;;14.60;;
64641;SDS011;59936;51.490;5.436;2023-05-10T13:27:27;18.70;;;15.50;;
64641;SDS011;59936;51.490;5.436;2023-05-10T13:29:53;20.90;;;16.90;;
64641;SDS011;59936;51.490;5.436;2023-05-10T13:32:19;26.70;;;17.50;;
64641;SDS011;59936;51.490;5.436;2023-05-10T13:34:45;29.60;;;21.10;;
64641;SDS011;59936;51.490;5.436;2023-05-10T13:37:11;26.70;;;19.00;;
64641;SDS011;59936;51.490;5.436;2023-05-10T13:39:37;20.80;;;15.50;;
64641;SDS011;59936;51.490;5.436;2023-05-10T13:42:03;22.90;;;17.20;;
64641;SDS011;59936;51.490;5.436;2023-05-10T13:44:29;23.10;;;16.90;;
64641;SDS011;59936;51.490;5.436;2023-05-10T13:46:55;22.80;;;17.30;;
64641;SDS011;59936;51.490;5.436;2023-05-10T13:49:21;21.60;;;16.70;;
64641;SDS011;59936;51.490;5.436;2023-05-10T13:51:47;18.80;;;15.10;;
64641;SDS011;59936;51.490;5.436;2023-05-10T13:56:39;8.15;;;6.20;;
64641;SDS011;59936;51.490;5.436;2023-05-10T13:59:05;6.40;;;4.80;;
64641;SDS011;59936;51.490;5.436;2023-05-10T14:03:57;7.25;;;4.75;;
64641;SDS011;59936;51.490;5.436;2023-05-10T14:06:23;9.50;;;6.00;;
64641;SDS011;59936;51.490;5.436;2023-05-10T14:08:49;7.10;;;5.80;;
64641;SDS011;59936;51.490;5.436;2023-05-10T14:11:14;7.40;;;5.50;;
64641;SDS011;59936;51.490;5.436;2023-05-10T14:13:40;11.90;;;7.60;;
64641;SDS011;59936;51.490;5.436;2023-05-10T14:18:32;11.80;;;6.80;;
64641;SDS011;59936;51.490;5.436;2023-05-10T14:20:58;9.10;;;7.60;;
64641;SDS011;59936;51.490;5.436;2023-05-10T14:23:24;11.80;;;9.10;;
64641;SDS011;59936;51.490;5.436;2023-05-10T14:25:51;11.80;;;9.20;;
64641;SDS011;59936;51.490;5.436;2023-05-10T14:28:17;11.80;;;9.20;;
64641;SDS011;59936;51.490;5.436;2023-05-10T14:30:43;11.90;;;9.40;;
64641;SDS011;59936;51.490;5.436;2023-05-10T14:35:35;14.90;;;10.40;;
64641;SDS011;59936;51.490;5.436;2023-05-10T14:38:01;17.80;;;13.10;;
64641;SDS011;59936;51.490;5.436;2023-05-10T14:40:28;16.80;;;12.00;;
64641;SDS011;59936;51.490;5.436;2023-05-10T14:45:20;19.30;;;11.95;;
64641;SDS011;59936;51.490;5.436;2023-05-10T14:47:46;21.00;;;14.80;;
64641;SDS011;59936;51.490;5.436;2023-05-10T14:50:12;19.00;;;13.70;;
64641;SDS011;59936;51.490;5.436;2023-05-10T14:55:03;15.15;;;10.80;;
64641;SDS011;59936;51.490;5.436;2023-05-10T14:57:29;16.40;;;11.30;;
64641;SDS011;59936;51.490;5.436;2023-05-10T15:02:21;11.55;;;9.30;;
64641;SDS011;59936;51.490;5.436;2023-05-10T15:04:47;17.00;;;11.70;;
64641;SDS011;59936;51.490;5.436;2023-05-10T15:09:38;13.45;;;8.70;;
64641;SDS011;59936;51.490;5.436;2023-05-10T15:12:04;10.60;;;8.60;;
64641;SDS011;59936;51.490;5.436;2023-05-10T15:16:56;11.35;;;8.60;;
64641;SDS011;59936;51.490;5.436;2023-05-10T15:21:47;13.05;;;8.75;;
64641;SDS011;59936;51.490;5.436;2023-05-10T15:26:39;14.10;;;10.40;;
64641;SDS011;59936;51.490;5.436;2023-05-10T15:31:30;14.95;;;12.95;;
64641;SDS011;59936;51.490;5.436;2023-05-10T15:36:22;17.70;;;13.30;;
64641;SDS011;59936;51.490;5.436;2023-05-10T15:41:14;20.15;;;13.00;;
64641;SDS011;59936;51.490;5.436;2023-05-10T15:46:05;17.05;;;12.20;;
64641;SDS011;59936;51.490;5.436;2023-05-10T15:50:57;12.30;;;11.00;;
64641;SDS011;59936;51.490;5.436;2023-05-10T15:55:48;14.35;;;10.20;;
64641;SDS011;59936;51.490;5.436;2023-05-10T16:00:40;15.20;;;11.55;;
64641;SDS011;59936;51.490;5.436;2023-05-10T16:05:32;17.10;;;10.50;;
64641;SDS011;59936;51.490;5.436;2023-05-10T16:07:58;20.90;;;11.10;;
64641;SDS011;59936;51.490;5.436;2023-05-10T16:10:24;19.20;;;13.40;;
64641;SDS011;59936;51.490;5.436;2023-05-10T16:15:16;14.00;;;10.40;;
64641;SDS011;59936;51.490;5.436;2023-05-10T16:20:07;12.35;;;9.80;;
64641;SDS011;59936;51.490;5.436;2023-05-10T16:22:34;15.40;;;10.40;;
64641;SDS011;59936;51.490;5.436;2023-05-10T16:25:00;17.70;;;10.50;;
64641;SDS011;59936;51.490;5.436;2023-05-10T16:29:51;18.10;;;10.30;;
64641;SDS011;59936;51.490;5.436;2023-05-10T16:34:43;11.70;;;8.05;;
64641;SDS011;59936;51.490;5.436;2023-05-10T16:39:34;9.30;;;8.35;;
64641;SDS011;59936;51.490;5.436;2023-05-10T16:44:26;13.00;;;9.85;;
64641;SDS011;59936;51.490;5.436;2023-05-10T16:49:17;11.85;;;9.75;;
64641;SDS011;59936;51.490;5.436;2023-05-10T16:54:09;16.20;;;10.60;;
64641;SDS011;59936;51.490;5.436;2023-05-10T16:59:00;19.45;;;13.35;;
64641;SDS011;59936;51.490;5.436;2023-05-10T17:03:52;20.50;;;13.55;;
64641;SDS011;59936;51.490;5.436;2023-05-10T17:08:43;8.45;;;7.00;;
64641;SDS011;59936;51.490;5.436;2023-05-10T17:13:35;12.25;;;7.35;;
64641;SDS011;59936;51.490;5.436;2023-05-10T17:18:26;7.95;;;7.15;;
64641;SDS011;59936;51.490;5.436;2023-05-10T17:23:18;11.05;;;9.00;;
64641;SDS011;59936;51.490;5.436;2023-05-10T17:28:09;8.90;;;8.10;;
64641;SDS011;59936;51.490;5.436;2023-05-10T17:33:01;10.15;;;8.35;;
64641;SDS011;59936;51.490;5.436;2023-05-10T17:37:52;8.05;;;7.30;;
64641;SDS011;59936;51.490;5.436;2023-05-10T17:40:18;10.20;;;8.90;;
64641;SDS011;59936;51.490;5.436;2023-05-10T17:45:10;13.80;;;10.85;;
64641;SDS011;59936;51.490;5.436;2023-05-10T17:47:36;12.90;;;10.80;;
64641;SDS011;59936;51.490;5.436;2023-05-10T17:50:02;12.40;;;10.40;;
64641;SDS011;59936;51.490;5.436;2023-05-10T17:52:28;15.50;;;11.40;;
64641;SDS011;59936;51.490;5.436;2023-05-10T17:57:20;13.90;;;11.15;;
64641;SDS011;59936;51.490;5.436;2023-05-10T17:59:47;22.30;;;15.70;;
64641;SDS011;59936;51.490;5.436;2023-05-10T18:04:39;16.55;;;12.35;;
64641;SDS011;59936;51.490;5.436;2023-05-10T18:07:05;15.20;;;12.60;;
64641;SDS011;59936;51.490;5.436;2023-05-10T18:09:31;18.70;;;12.90;;
64641;SDS011;59936;51.490;5.436;2023-05-10T18:14:22;16.65;;;12.00;;
64641;SDS011;59936;51.490;5.436;2023-05-10T18:19:14;15.10;;;12.25;;
64641;SDS011;59936;51.490;5.436;2023-05-10T18:24:05;15.60;;;12.95;;
64641;SDS011;59936;51.490;5.436;2023-05-10T18:28:57;16.20;;;13.55;;
64641;SDS011;59936;51.490;5.436;2023-05-10T18:33:48;23.15;;;14.10;;
64641;SDS011;59936;51.490;5.436;2023-05-10T18:38:40;27.55;;;15.50;;
64641;SDS011;59936;51.490;5.436;2023-05-10T18:43:31;15.15;;;11.90;;
64641;SDS011;59936;51.490;5.436;2023-05-10T18:48:23;17.55;;;13.60;;
64641;SDS011;59936;51.490;5.436;2023-05-10T18:53:14;20.55;;;13.35;;
64641;SDS011;59936;51.490;5.436;2023-05-10T18:58:06;17.00;;;11.95;;